Terminal Aerodrome Forecast
Issued by NWS Tampa Bay Area, FL

Home | Current Version | Previous Version | Text Only | Print | Product List | Glossary On
Versions: 1 2 3 4 5 6 7 8 9 10 11 12
962
FTUS42 KTBW 130530
TAFSRQ
TAF
KSRQ 130530Z 1306/1406 35007KT P6SM SKC
     FM131200 01005KT P6SM SKC
     FM131800 29007KT P6SM FEW250
     FM140100 VRB03KT P6SM FEW250=

USA.gov is the U.S. government's official web portal to all federal, state and local government web resources and services.